sensor_id;sensor_type;location;lat;lon;timestamp;pressure;altitude;pressure_sealevel;temperature;humidity
81802;BME280;71199;52.490;5.448;2024-02-28T00:01:17;102093.13;;;2.25;100.00
81802;BME280;71199;52.490;5.448;2024-02-28T00:03:42;102099.41;;;2.25;100.00
81802;BME280;71199;52.490;5.448;2024-02-28T00:06:08;102094.34;;;2.19;100.00
81802;BME280;71199;52.490;5.448;2024-02-28T00:08:35;102094.69;;;2.13;100.00
81802;BME280;71199;52.490;5.448;2024-02-28T00:11:00;102084.13;;;2.08;100.00
81802;BME280;71199;52.490;5.448;2024-02-28T00:13:26;102094.41;;;2.01;100.00
81802;BME280;71199;52.490;5.448;2024-02-28T00:15:51;102095.47;;;1.83;100.00
81802;BME280;71199;52.490;5.448;2024-02-28T00:18:16;102091.06;;;1.65;100.00
81802;BME280;71199;52.490;5.448;2024-02-28T00:20:44;102085.19;;;1.56;100.00
81802;BME280;71199;52.490;5.448;2024-02-28T00:23:09;102084.06;;;1.45;100.00
81802;BME280;71199;52.490;5.448;2024-02-28T00:25:35;102089.63;;;1.26;100.00
81802;BME280;71199;52.490;5.448;2024-02-28T00:28:00;102085.47;;;1.18;100.00
81802;BME280;71199;52.490;5.448;2024-02-28T00:30:26;102089.16;;;1.17;100.00
81802;BME280;71199;52.490;5.448;2024-02-28T00:32:53;102077.13;;;1.06;100.00
81802;BME280;71199;52.490;5.448;2024-02-28T00:35:19;102080.41;;;0.95;100.00
81802;BME280;71199;52.490;5.448;2024-02-28T00:37:44;102091.63;;;0.87;100.00
81802;BME280;71199;52.490;5.448;2024-02-28T00:40:10;102089.97;;;0.85;100.00
81802;BME280;71199;52.490;5.448;2024-02-28T00:42:35;102091.25;;;0.77;100.00
81802;BME280;71199;52.490;5.448;2024-02-28T00:45:01;102077.22;;;0.69;100.00
81802;BME280;71199;52.490;5.448;2024-02-28T00:47:26;102081.13;;;0.64;100.00
81802;BME280;71199;52.490;5.448;2024-02-28T00:49:52;102076.75;;;0.61;100.00
81802;BME280;71199;52.490;5.448;2024-02-28T00:52:17;102084.13;;;0.57;100.00
81802;BME280;71199;52.490;5.448;2024-02-28T00:54:42;102085.34;;;0.52;100.00
81802;BME280;71199;52.490;5.448;2024-02-28T00:57:08;102083.66;;;0.49;100.00
81802;BME280;71199;52.490;5.448;2024-02-28T00:59:33;102085.34;;;0.52;100.00
81802;BME280;71199;52.490;5.448;2024-02-28T01:01:59;102090.75;;;0.52;100.00
81802;BME280;71199;52.490;5.448;2024-02-28T01:04:24;102080.81;;;0.52;100.00
81802;BME280;71199;52.490;5.448;2024-02-28T01:06:49;102093.78;;;0.46;100.00
81802;BME280;71199;52.490;5.448;2024-02-28T01:09:15;102088.00;;;0.34;100.00
81802;BME280;71199;52.490;5.448;2024-02-28T01:11:40;102082.47;;;0.37;100.00
81802;BME280;71199;52.490;5.448;2024-02-28T01:14:06;102092.78;;;0.29;100.00
81802;BME280;71199;52.490;5.448;2024-02-28T01:16:31;102094.91;;;0.23;100.00
81802;BME280;71199;52.490;5.448;2024-02-28T01:18:56;102090.69;;;0.17;100.00
81802;BME280;71199;52.490;5.448;2024-02-28T01:21:25;102085.47;;;0.31;100.00
81802;BME280;71199;52.490;5.448;2024-02-28T01:23:51;102096.84;;;0.38;100.00
81802;BME280;71199;52.490;5.448;2024-02-28T01:26:17;102090.16;;;0.45;100.00
81802;BME280;71199;52.490;5.448;2024-02-28T01:28:45;102087.25;;;0.50;100.00
81802;BME280;71199;52.490;5.448;2024-02-28T01:31:10;102082.53;;;0.53;100.00
81802;BME280;71199;52.490;5.448;2024-02-28T01:33:36;102087.56;;;0.61;100.00
81802;BME280;71199;52.490;5.448;2024-02-28T01:36:01;102075.31;;;0.71;100.00
81802;BME280;71199;52.490;5.448;2024-02-28T01:38:26;102070.38;;;0.79;100.00
81802;BME280;71199;52.490;5.448;2024-02-28T01:40:52;102076.34;;;0.86;100.00
81802;BME280;71199;52.490;5.448;2024-02-28T01:43:17;102076.91;;;0.93;100.00
81802;BME280;71199;52.490;5.448;2024-02-28T01:45:42;102074.56;;;1.03;100.00
81802;BME280;71199;52.490;5.448;2024-02-28T01:48:09;102074.50;;;1.04;100.00
81802;BME280;71199;52.490;5.448;2024-02-28T01:50:36;102072.13;;;0.98;100.00
81802;BME280;71199;52.490;5.448;2024-02-28T01:53:06;102082.81;;;1.01;100.00
81802;BME280;71199;52.490;5.448;2024-02-28T01:55:34;102071.06;;;1.00;100.00
81802;BME280;71199;52.490;5.448;2024-02-28T01:58:02;102068.28;;;1.02;100.00
81802;BME280;71199;52.490;5.448;2024-02-28T02:00:32;102065.25;;;1.08;100.00
81802;BME280;71199;52.490;5.448;2024-02-28T02:02:58;102072.00;;;1.17;100.00
81802;BME280;71199;52.490;5.448;2024-02-28T02:05:23;102068.28;;;1.19;100.00
81802;BME280;71199;52.490;5.448;2024-02-28T02:07:48;102065.06;;;1.29;100.00
81802;BME280;71199;52.490;5.448;2024-02-28T02:10:15;102067.84;;;1.27;100.00
81802;BME280;71199;52.490;5.448;2024-02-28T02:12:40;102063.31;;;1.28;100.00
81802;BME280;71199;52.490;5.448;2024-02-28T02:15:06;102052.31;;;1.31;100.00
81802;BME280;71199;52.490;5.448;2024-02-28T02:17:31;102053.97;;;1.33;100.00
81802;BME280;71199;52.490;5.448;2024-02-28T02:19:56;102053.91;;;1.35;100.00
81802;BME280;71199;52.490;5.448;2024-02-28T02:22:23;102056.59;;;1.35;100.00
81802;BME280;71199;52.490;5.448;2024-02-28T02:24:48;102058.97;;;1.41;100.00
81802;BME280;71199;52.490;5.448;2024-02-28T02:27:13;102052.91;;;1.36;100.00
81802;BME280;71199;52.490;5.448;2024-02-28T02:29:39;102055.88;;;1.31;100.00
81802;BME280;71199;52.490;5.448;2024-02-28T02:32:04;102060.44;;;1.31;100.00
81802;BME280;71199;52.490;5.448;2024-02-28T02:34:30;102058.34;;;1.36;100.00
81802;BME280;71199;52.490;5.448;2024-02-28T02:36:55;102055.06;;;1.47;100.00
81802;BME280;71199;52.490;5.448;2024-02-28T02:39:21;102062.06;;;1.51;100.00
81802;BME280;71199;52.490;5.448;2024-02-28T02:41:47;102062.41;;;1.60;100.00
81802;BME280;71199;52.490;5.448;2024-02-28T02:44:12;102062.31;;;1.62;100.00
81802;BME280;71199;52.490;5.448;2024-02-28T02:46:38;102064.69;;;1.68;100.00
81802;BME280;71199;52.490;5.448;2024-02-28T02:49:04;102062.84;;;1.69;100.00
81802;BME280;71199;52.490;5.448;2024-02-28T02:51:29;102062.84;;;1.69;100.00
81802;BME280;71199;52.490;5.448;2024-02-28T02:53:55;102062.59;;;1.73;100.00
81802;BME280;71199;52.490;5.448;2024-02-28T02:56:20;102054.56;;;1.72;100.00
81802;BME280;71199;52.490;5.448;2024-02-28T02:58:46;102057.88;;;1.77;100.00
81802;BME280;71199;52.490;5.448;2024-02-28T03:01:11;102056.72;;;1.81;100.00
81802;BME280;71199;52.490;5.448;2024-02-28T03:03:36;102060.41;;;1.80;100.00
81802;BME280;71199;52.490;5.448;2024-02-28T03:06:03;102057.72;;;1.80;100.00
81802;BME280;71199;52.490;5.448;2024-02-28T03:08:30;102053.00;;;1.84;100.00
81802;BME280;71199;52.490;5.448;2024-02-28T03:10:55;102052.00;;;1.85;100.00
81802;BME280;71199;52.490;5.448;2024-02-28T03:13:20;102042.94;;;1.86;100.00
81802;BME280;71199;52.490;5.448;2024-02-28T03:15:47;102039.34;;;1.85;100.00
81802;BME280;71199;52.490;5.448;2024-02-28T03:18:13;102036.88;;;1.80;100.00
81802;BME280;71199;52.490;5.448;2024-02-28T03:20:39;102038.09;;;1.75;100.00
81802;BME280;71199;52.490;5.448;2024-02-28T03:23:05;102047.72;;;1.65;100.00
81802;BME280;71199;52.490;5.448;2024-02-28T03:25:32;102045.00;;;1.65;100.00
81802;BME280;71199;52.490;5.448;2024-02-28T03:27:58;102052.00;;;1.69;100.00
81802;BME280;71199;52.490;5.448;2024-02-28T03:30:24;102047.22;;;1.74;100.00
81802;BME280;71199;52.490;5.448;2024-02-28T03:32:49;102055.94;;;1.79;100.00
81802;BME280;71199;52.490;5.448;2024-02-28T03:35:15;102040.13;;;1.87;100.00
81802;BME280;71199;52.490;5.448;2024-02-28T03:37:40;102038.38;;;2.02;100.00
81802;BME280;71199;52.490;5.448;2024-02-28T03:40:06;102033.75;;;2.04;100.00
81802;BME280;71199;52.490;5.448;2024-02-28T03:42:32;102042.56;;;2.08;100.00
81802;BME280;71199;52.490;5.448;2024-02-28T03:44:57;102045.25;;;2.08;100.00
81802;BME280;71199;52.490;5.448;2024-02-28T03:47:22;102046.03;;;2.10;100.00
81802;BME280;71199;52.490;5.448;2024-02-28T03:49:49;102040.53;;;2.11;100.00
81802;BME280;71199;52.490;5.448;2024-02-28T03:52:15;102045.09;;;2.11;100.00
81802;BME280;71199;52.490;5.448;2024-02-28T03:54:42;102054.81;;;2.15;100.00
81802;BME280;71199;52.490;5.448;2024-02-28T03:57:08;102049.97;;;2.20;100.00
81802;BME280;71199;52.490;5.448;2024-02-28T03:59:34;102057.09;;;2.22;100.00
81802;BME280;71199;52.490;5.448;2024-02-28T04:01:59;102058.44;;;2.30;100.00
81802;BME280;71199;52.490;5.448;2024-02-28T04:04:24;102056.44;;;2.33;100.00
81802;BME280;71199;52.490;5.448;2024-02-28T04:06:50;102060.72;;;2.37;100.00
81802;BME280;71199;52.490;5.448;2024-02-28T04:09:15;102053.16;;;2.42;100.00
81802;BME280;71199;52.490;5.448;2024-02-28T04:11:40;102058.94;;;2.52;100.00
81802;BME280;71199;52.490;5.448;2024-02-28T04:14:08;102051.19;;;2.60;100.00
81802;BME280;71199;52.490;5.448;2024-02-28T04:16:33;102056.63;;;2.60;100.00
81802;BME280;71199;52.490;5.448;2024-02-28T04:18:58;102054.50;;;2.66;100.00
81802;BME280;71199;52.490;5.448;2024-02-28T04:21:24;102058.00;;;2.68;100.00
81802;BME280;71199;52.490;5.448;2024-02-28T04:23:49;102056.84;;;2.72;100.00
81802;BME280;71199;52.490;5.448;2024-02-28T04:26:15;102058.69;;;2.71;100.00
81802;BME280;71199;52.490;5.448;2024-02-28T04:28:41;102059.19;;;2.78;100.00
81802;BME280;71199;52.490;5.448;2024-02-28T04:31:07;102064.34;;;2.82;100.00
81802;BME280;71199;52.490;5.448;2024-02-28T04:33:32;102061.34;;;2.87;100.00
81802;BME280;71199;52.490;5.448;2024-02-28T04:35:58;102061.94;;;2.92;100.00
81802;BME280;71199;52.490;5.448;2024-02-28T04:38:23;102072.72;;;2.94;100.00
81802;BME280;71199;52.490;5.448;2024-02-28T04:40:48;102071.56;;;2.98;100.00
81802;BME280;71199;52.490;5.448;2024-02-28T04:43:15;102072.16;;;3.03;100.00
81802;BME280;71199;52.490;5.448;2024-02-28T04:45:40;102079.31;;;3.04;100.00
81802;BME280;71199;52.490;5.448;2024-02-28T04:48:06;102087.38;;;3.06;100.00
81802;BME280;71199;52.490;5.448;2024-02-28T04:50:31;102083.03;;;3.03;100.00
81802;BME280;71199;52.490;5.448;2024-02-28T04:52:57;102082.13;;;3.02;100.00
81802;BME280;71199;52.490;5.448;2024-02-28T04:55:22;102081.56;;;3.12;100.00
81802;BME280;71199;52.490;5.448;2024-02-28T04:57:48;102079.63;;;3.14;100.00
81802;BME280;71199;52.490;5.448;2024-02-28T05:00:13;102075.94;;;3.15;100.00
81802;BME280;71199;52.490;5.448;2024-02-28T05:02:39;102076.53;;;3.20;100.00
81802;BME280;71199;52.490;5.448;2024-02-28T05:05:04;102081.75;;;3.23;100.00
81802;BME280;71199;52.490;5.448;2024-02-28T05:07:30;102084.22;;;3.28;100.00
81802;BME280;71199;52.490;5.448;2024-02-28T05:09:55;102085.94;;;3.29;100.00
81802;BME280;71199;52.490;5.448;2024-02-28T05:12:20;102070.25;;;3.34;100.00
81802;BME280;71199;52.490;5.448;2024-02-28T05:14:46;102078.19;;;3.37;100.00
81802;BME280;71199;52.490;5.448;2024-02-28T05:17:11;102072.97;;;3.34;100.00
81802;BME280;71199;52.490;5.448;2024-02-28T05:19:36;102067.31;;;3.37;100.00
81802;BME280;71199;52.490;5.448;2024-02-28T05:22:02;102072.56;;;3.40;100.00
81802;BME280;71199;52.490;5.448;2024-02-28T05:24:28;102076.94;;;3.42;100.00
81802;BME280;71199;52.490;5.448;2024-02-28T05:26:53;102081.50;;;3.42;100.00
81802;BME280;71199;52.490;5.448;2024-02-28T05:29:18;102073.25;;;3.43;100.00
81802;BME280;71199;52.490;5.448;2024-02-28T05:31:44;102074.13;;;3.44;100.00
81802;BME280;71199;52.490;5.448;2024-02-28T05:34:09;102072.19;;;3.46;100.00
81802;BME280;71199;52.490;5.448;2024-02-28T05:36:35;102068.88;;;3.41;100.00
81802;BME280;71199;52.490;5.448;2024-02-28T05:39:00;102061.59;;;3.41;100.00
81802;BME280;71199;52.490;5.448;2024-02-28T05:41:26;102066.94;;;3.43;100.00
81802;BME280;71199;52.490;5.448;2024-02-28T05:43:52;102056.28;;;3.40;100.00
81802;BME280;71199;52.490;5.448;2024-02-28T05:46:18;102058.22;;;3.38;100.00
81802;BME280;71199;52.490;5.448;2024-02-28T05:48:44;102062.56;;;3.40;100.00
81802;BME280;71199;52.490;5.448;2024-02-28T05:51:12;102068.97;;;3.39;100.00
81802;BME280;71199;52.490;5.448;2024-02-28T05:53:38;102070.25;;;3.48;100.00
81802;BME280;71199;52.490;5.448;2024-02-28T05:56:05;102067.22;;;3.53;100.00
81802;BME280;71199;52.490;5.448;2024-02-28T05:58:30;102072.47;;;3.56;100.00
81802;BME280;71199;52.490;5.448;2024-02-28T06:00:56;102080.34;;;3.60;100.00
81802;BME280;71199;52.490;5.448;2024-02-28T06:03:22;102076.53;;;3.63;100.00
81802;BME280;71199;52.490;5.448;2024-02-28T06:05:47;102083.22;;;3.72;100.00
81802;BME280;71199;52.490;5.448;2024-02-28T06:08:13;102082.47;;;3.70;100.00
81802;BME280;71199;52.490;5.448;2024-02-28T06:10:39;102075.28;;;3.69;100.00
81802;BME280;71199;52.490;5.448;2024-02-28T06:13:04;102086.63;;;3.75;100.00
81802;BME280;71199;52.490;5.448;2024-02-28T06:15:30;102090.91;;;3.79;100.00
81802;BME280;71199;52.490;5.448;2024-02-28T06:17:57;102088.97;;;3.81;100.00
81802;BME280;71199;52.490;5.448;2024-02-28T06:20:22;102086.25;;;3.81;100.00
81802;BME280;71199;52.490;5.448;2024-02-28T06:22:48;102082.66;;;3.81;100.00
81802;BME280;71199;52.490;5.448;2024-02-28T06:25:13;102080.72;;;3.83;100.00
81802;BME280;71199;52.490;5.448;2024-02-28T06:27:44;102078.75;;;3.85;100.00
81802;BME280;71199;52.490;5.448;2024-02-28T06:30:10;102075.28;;;3.83;100.00
81802;BME280;71199;52.490;5.448;2024-02-28T06:32:38;102080.81;;;3.81;100.00
81802;BME280;71199;52.490;5.448;2024-02-28T06:35:03;102087.88;;;3.84;100.00
81802;BME280;71199;52.490;5.448;2024-02-28T06:37:29;102090.41;;;3.87;100.00
81802;BME280;71199;52.490;5.448;2024-02-28T06:39:54;102099.69;;;3.97;100.00
81802;BME280;71199;52.490;5.448;2024-02-28T06:42:20;102107.97;;;3.96;100.00
81802;BME280;71199;52.490;5.448;2024-02-28T06:44:45;102105.72;;;4.02;100.00
81802;BME280;71199;52.490;5.448;2024-02-28T06:47:10;102109.53;;;4.00;100.00
81802;BME280;71199;52.490;5.448;2024-02-28T06:49:36;102112.34;;;3.98;100.00
81802;BME280;71199;52.490;5.448;2024-02-28T06:52:01;102109.41;;;4.01;100.00
81802;BME280;71199;52.490;5.448;2024-02-28T06:54:27;102113.00;;;4.02;100.00
81802;BME280;71199;52.490;5.448;2024-02-28T06:56:53;102124.44;;;4.07;100.00
81802;BME280;71199;52.490;5.448;2024-02-28T06:59:19;102131.44;;;4.11;100.00
81802;BME280;71199;52.490;5.448;2024-02-28T07:01:44;102135.91;;;4.12;100.00
81802;BME280;71199;52.490;5.448;2024-02-28T07:04:09;102142.63;;;4.07;100.00
81802;BME280;71199;52.490;5.448;2024-02-28T07:06:35;102139.28;;;4.16;100.00
81802;BME280;71199;52.490;5.448;2024-02-28T07:09:00;102133.00;;;4.15;100.00
81802;BME280;71199;52.490;5.448;2024-02-28T07:11:25;102137.47;;;4.16;100.00
81802;BME280;71199;52.490;5.448;2024-02-28T07:13:51;102136.56;;;4.16;100.00
81802;BME280;71199;52.490;5.448;2024-02-28T07:16:16;102136.56;;;4.16;100.00
81802;BME280;71199;52.490;5.448;2024-02-28T07:18:41;102139.28;;;4.16;100.00
81802;BME280;71199;52.490;5.448;2024-02-28T07:21:07;102132.41;;;4.24;100.00
81802;BME280;71199;52.490;5.448;2024-02-28T07:23:33;102134.03;;;4.27;100.00
81802;BME280;71199;52.490;5.448;2024-02-28T07:25:58;102142.88;;;4.31;100.00
81802;BME280;71199;52.490;5.448;2024-02-28T07:28:23;102142.56;;;4.35;100.00
81802;BME280;71199;52.490;5.448;2024-02-28T07:30:49;102148.00;;;4.35;100.00
81802;BME280;71199;52.490;5.448;2024-02-28T07:33:14;102140.63;;;4.37;100.00
81802;BME280;71199;52.490;5.448;2024-02-28T07:35:46;102147.59;;;4.41;100.00
81802;BME280;71199;52.490;5.448;2024-02-28T07:38:12;102152.66;;;4.48;100.00
81802;BME280;71199;52.490;5.448;2024-02-28T07:40:42;102160.81;;;4.48;100.00
81802;BME280;71199;52.490;5.448;2024-02-28T07:43:08;102167.97;;;4.49;100.00
81802;BME280;71199;52.490;5.448;2024-02-28T07:45:33;102179.88;;;4.48;100.00
81802;BME280;71199;52.490;5.448;2024-02-28T07:47:58;102178.78;;;4.50;100.00
81802;BME280;71199;52.490;5.448;2024-02-28T07:50:24;102179.56;;;4.52;100.00
81802;BME280;71199;52.490;5.448;2024-02-28T07:52:49;102184.91;;;4.54;100.00
81802;BME280;71199;52.490;5.448;2024-02-28T07:55:15;102178.59;;;4.53;100.00
81802;BME280;71199;52.490;5.448;2024-02-28T07:57:40;102187.41;;;4.57;100.00
81802;BME280;71199;52.490;5.448;2024-02-28T08:00:06;102189.94;;;4.60;100.00
81802;BME280;71199;52.490;5.448;2024-02-28T08:02:31;102189.06;;;4.59;100.00
81802;BME280;71199;52.490;5.448;2024-02-28T08:04:57;102186.44;;;4.58;100.00
81802;BME280;71199;52.490;5.448;2024-02-28T08:07:22;102187.41;;;4.57;100.00
81802;BME280;71199;52.490;5.448;2024-02-28T08:09:49;102188.19;;;4.59;100.00
81802;BME280;71199;52.490;5.448;2024-02-28T08:12:14;102183.31;;;4.64;100.00
81802;BME280;71199;52.490;5.448;2024-02-28T08:14:39;102197.69;;;4.66;100.00
81802;BME280;71199;52.490;5.448;2024-02-28T08:17:05;102191.06;;;4.70;100.00
81802;BME280;71199;52.490;5.448;2024-02-28T08:19:30;102192.41;;;4.77;100.00
81802;BME280;71199;52.490;5.448;2024-02-28T08:21:55;102189.22;;;4.71;100.00
81802;BME280;71199;52.490;5.448;2024-02-28T08:24:21;102191.94;;;4.71;100.00
81802;BME280;71199;52.490;5.448;2024-02-28T08:26:46;102202.16;;;4.67;100.00
81802;BME280;71199;52.490;5.448;2024-02-28T08:29:12;102198.47;;;4.68;100.00
81802;BME280;71199;52.490;5.448;2024-02-28T08:31:43;102202.44;;;4.77;100.00
81802;BME280;71199;52.490;5.448;2024-02-28T08:34:09;102209.88;;;4.88;100.00
81802;BME280;71199;52.490;5.448;2024-02-28T08:36:35;102216.75;;;4.93;100.00
81802;BME280;71199;52.490;5.448;2024-02-28T08:39:01;102211.00;;;4.98;100.00
81802;BME280;71199;52.490;5.448;2024-02-28T08:41:26;102210.59;;;5.04;100.00
81802;BME280;71199;52.490;5.448;2024-02-28T08:43:51;102218.25;;;5.12;100.00
81802;BME280;71199;52.490;5.448;2024-02-28T08:46:17;102216.19;;;5.15;100.00
81802;BME280;71199;52.490;5.448;2024-02-28T08:48:42;102221.06;;;5.10;100.00
81802;BME280;71199;52.490;5.448;2024-02-28T08:51:07;102216.50;;;5.11;100.00
81802;BME280;71199;52.490;5.448;2024-02-28T08:53:33;102223.69;;;5.12;100.00
81802;BME280;71199;52.490;5.448;2024-02-28T08:55:58;102209.31;;;5.10;100.00
81802;BME280;71199;52.490;5.448;2024-02-28T08:58:24;102214.66;;;5.11;100.00
81802;BME280;71199;52.490;5.448;2024-02-28T09:00:49;102208.13;;;5.14;100.00
81802;BME280;71199;52.490;5.448;2024-02-28T09:03:14;102204.88;;;5.21;100.00
81802;BME280;71199;52.490;5.448;2024-02-28T09:05:40;102203.25;;;5.32;100.00
81802;BME280;71199;52.490;5.448;2024-02-28T09:08:05;102203.13;;;5.33;100.00
81802;BME280;71199;52.490;5.448;2024-02-28T09:10:31;102199.88;;;5.41;100.00
81802;BME280;71199;52.490;5.448;2024-02-28T09:12:59;102209.06;;;5.53;100.00
81802;BME280;71199;52.490;5.448;2024-02-28T09:15:24;102212.47;;;5.69;100.00
81802;BME280;71199;52.490;5.448;2024-02-28T09:17:50;102204.06;;;5.85;100.00
81802;BME280;71199;52.490;5.448;2024-02-28T09:20:15;102201.56;;;5.95;100.00
81802;BME280;71199;52.490;5.448;2024-02-28T09:22:42;102209.31;;;6.14;100.00
81802;BME280;71199;52.490;5.448;2024-02-28T09:25:08;102191.38;;;6.35;100.00
81802;BME280;71199;52.490;5.448;2024-02-28T09:27:34;102203.34;;;6.45;100.00
81802;BME280;71199;52.490;5.448;2024-02-28T09:30:00;102199.06;;;6.54;100.00
81802;BME280;71199;52.490;5.448;2024-02-28T09:32:25;102195.97;;;6.59;100.00
81802;BME280;71199;52.490;5.448;2024-02-28T09:34:51;102196.00;;;6.83;100.00
81802;BME280;71199;52.490;5.448;2024-02-28T09:37:16;102199.88;;;6.92;100.00
81802;BME280;71199;52.490;5.448;2024-02-28T09:39:47;102207.75;;;6.96;100.00
81802;BME280;71199;52.490;5.448;2024-02-28T09:42:13;102198.75;;;7.07;100.00
81802;BME280;71199;52.490;5.448;2024-02-28T09:44:40;102202.41;;;6.95;100.00
81802;BME280;71199;52.490;5.448;2024-02-28T09:47:05;102199.03;;;6.91;100.00
81802;BME280;71199;52.490;5.448;2024-02-28T09:49:31;102207.75;;;6.96;100.00
81802;BME280;71199;52.490;5.448;2024-02-28T09:51:58;102202.41;;;6.95;100.00
81802;BME280;71199;52.490;5.448;2024-02-28T09:54:23;102211.56;;;6.94;100.00
81802;BME280;71199;52.490;5.448;2024-02-28T09:56:49;102202.75;;;6.90;100.00
81802;BME280;71199;52.490;5.448;2024-02-28T09:59:15;102211.06;;;6.89;100.00
81802;BME280;71199;52.490;5.448;2024-02-28T10:01:47;102212.69;;;6.91;100.00
81802;BME280;71199;52.490;5.448;2024-02-28T10:04:13;102215.41;;;7.15;100.00
81802;BME280;71199;52.490;5.448;2024-02-28T10:06:41;102219.78;;;7.53;100.00
81802;BME280;71199;52.490;5.448;2024-02-28T10:09:07;102215.75;;;7.93;100.00
81802;BME280;71199;52.490;5.448;2024-02-28T10:11:33;102222.22;;;8.25;100.00
81802;BME280;71199;52.490;5.448;2024-02-28T10:14:00;102225.63;;;8.52;100.00
81802;BME280;71199;52.490;5.448;2024-02-28T10:16:26;102217.75;;;8.58;100.00
81802;BME280;71199;52.490;5.448;2024-02-28T10:18:52;102213.53;;;8.54;100.00
81802;BME280;71199;52.490;5.448;2024-02-28T10:21:17;102218.38;;;8.39;100.00
81802;BME280;71199;52.490;5.448;2024-02-28T10:23:44;102221.97;;;8.40;100.00
81802;BME280;71199;52.490;5.448;2024-02-28T10:26:10;102215.28;;;8.44;100.00
81802;BME280;71199;52.490;5.448;2024-02-28T10:28:40;102216.53;;;8.51;100.00
81802;BME280;71199;52.490;5.448;2024-02-28T10:31:06;102217.13;;;8.66;100.00
81802;BME280;71199;52.490;5.448;2024-02-28T10:33:32;102218.50;;;8.60;100.00
81802;BME280;71199;52.490;5.448;2024-02-28T10:35:59;102209.00;;;8.76;100.00
81802;BME280;71199;52.490;5.448;2024-02-28T10:38:26;102206.50;;;8.84;100.00
81802;BME280;71199;52.490;5.448;2024-02-28T10:40:51;102206.63;;;8.82;100.00
81802;BME280;71199;52.490;5.448;2024-02-28T10:43:18;102199.88;;;8.86;100.00
81802;BME280;71199;52.490;5.448;2024-02-28T10:45:44;102199.13;;;8.96;100.00
81802;BME280;71199;52.490;5.448;2024-02-28T10:48:11;102204.03;;;9.13;100.00
81802;BME280;71199;52.490;5.448;2024-02-28T10:50:36;102202.16;;;9.14;100.00
81802;BME280;71199;52.490;5.448;2024-02-28T10:53:03;102202.00;;;8.94;100.00
81802;BME280;71199;52.490;5.448;2024-02-28T10:55:39;102205.66;;;8.72;100.00
81802;BME280;71199;52.490;5.448;2024-02-28T10:58:11;102205.66;;;8.72;100.00
81802;BME280;71199;52.490;5.448;2024-02-28T11:00:42;102198.00;;;8.87;100.00
81802;BME280;71199;52.490;5.448;2024-02-28T11:03:13;102206.44;;;8.95;100.00
81802;BME280;71199;52.490;5.448;2024-02-28T11:05:42;102208.44;;;9.04;100.00
81802;BME280;71199;52.490;5.448;2024-02-28T11:08:27;102208.34;;;9.27;100.00
81802;BME280;71199;52.490;5.448;2024-02-28T11:11:03;102211.63;;;9.42;100.00
81802;BME280;71199;52.490;5.448;2024-02-28T11:13:33;102202.13;;;9.46;100.00
81802;BME280;71199;52.490;5.448;2024-02-28T11:16:09;102196.66;;;9.46;100.00
81802;BME280;71199;52.490;5.448;2024-02-28T11:18:35;102199.97;;;9.28;100.00
81802;BME280;71199;52.490;5.448;2024-02-28T11:21:00;102199.41;;;9.14;100.00
81802;BME280;71199;52.490;5.448;2024-02-28T11:23:35;102187.91;;;9.20;100.00
81802;BME280;71199;52.490;5.448;2024-02-28T11:26:02;102186.44;;;9.37;100.00
81802;BME280;71199;52.490;5.448;2024-02-28T11:28:28;102175.47;;;9.37;100.00
81802;BME280;71199;52.490;5.448;2024-02-28T11:30:54;102180.09;;;9.36;100.00
81802;BME280;71199;52.490;5.448;2024-02-28T11:33:19;102182.72;;;9.38;100.00
81802;BME280;71199;52.490;5.448;2024-02-28T11:35:44;102171.25;;;9.33;100.00
81802;BME280;71199;52.490;5.448;2024-02-28T11:38:18;102171.00;;;9.36;100.00
81802;BME280;71199;52.490;5.448;2024-02-28T11:40:49;102160.69;;;9.49;100.00
81802;BME280;71199;52.490;5.448;2024-02-28T11:43:15;102162.91;;;9.55;100.00
81802;BME280;71199;52.490;5.448;2024-02-28T11:45:40;102160.09;;;9.66;100.00
81802;BME280;71199;52.490;5.448;2024-02-28T11:48:07;102151.72;;;9.68;100.00
81802;BME280;71199;52.490;5.448;2024-02-28T11:50:32;102161.25;;;9.64;100.00
81802;BME280;71199;52.490;5.448;2024-02-28T11:52:57;102163.09;;;9.63;100.00
81802;BME280;71199;52.490;5.448;2024-02-28T11:55:25;102163.91;;;9.54;100.00
81802;BME280;71199;52.490;5.448;2024-02-28T11:57:50;102164.78;;;9.55;100.00
81802;BME280;71199;52.490;5.448;2024-02-28T12:00:16;102164.03;;;9.53;100.00
81802;BME280;71199;52.490;5.448;2024-02-28T12:02:41;102164.19;;;9.72;100.00
81802;BME280;71199;52.490;5.448;2024-02-28T12:05:07;102167.19;;;9.69;100.00
81802;BME280;71199;52.490;5.448;2024-02-28T12:07:34;102164.91;;;9.53;100.00
81802;BME280;71199;52.490;5.448;2024-02-28T12:09:59;102160.97;;;9.67;100.00
81802;BME280;71199;52.490;5.448;2024-02-28T12:12:27;102161.88;;;9.77;100.00
81802;BME280;71199;52.490;5.448;2024-02-28T12:14:52;102157.88;;;9.60;100.00
81802;BME280;71199;52.490;5.448;2024-02-28T12:17:17;102151.72;;;9.68;100.00
81802;BME280;71199;52.490;5.448;2024-02-28T12:19:43;102153.38;;;9.80;100.00
81802;BME280;71199;52.490;5.448;2024-02-28T12:22:09;102151.59;;;10.00;100.00
81802;BME280;71199;52.490;5.448;2024-02-28T12:24:34;102146.97;;;10.01;100.00
81802;BME280;71199;52.490;5.448;2024-02-28T12:26:59;102147.34;;;10.17;100.00
81802;BME280;71199;52.490;5.448;2024-02-28T12:29:25;102149.22;;;10.26;100.00
81802;BME280;71199;52.490;5.448;2024-02-28T12:31:50;102146.81;;;10.33;100.00
81802;BME280;71199;52.490;5.448;2024-02-28T12:34:15;102147.50;;;10.25;100.00
81802;BME280;71199;52.490;5.448;2024-02-28T12:36:42;102149.06;;;10.18;100.00
81802;BME280;71199;52.490;5.448;2024-02-28T12:39:07;102132.22;;;10.02;100.00
81802;BME280;71199;52.490;5.448;2024-02-28T12:41:37;102140.88;;;9.97;100.00
81802;BME280;71199;52.490;5.448;2024-02-28T12:44:04;102140.34;;;10.03;100.00